Time,TemperatureF,DewpointF,PressureIn,WindDirection,WindDirectionDegrees,WindSpeedMPH,WindSpeedGustMPH,Humidity,HourlyPrecipIn,Conditions,Clouds,dailyrainin,SoftwareType,DateUTC
2013-04-28 00:02:00,58.0,50.0,-100.00,North,0,0.0,-999.0,75,-99.99,,,-99.99,,2013-04-28 05:02:00,
2013-04-28 00:12:00,58.0,50.0,-100.00,North,0,0.0,-999.0,76,-99.99,,,-99.99,,2013-04-28 05:12:00,
2013-04-28 00:22:00,57.0,50.0,-100.00,North,0,0.0,-999.0,78,-99.99,,,-99.99,,2013-04-28 05:22:00,
2013-04-28 00:32:00,57.0,51.0,-100.00,North,0,0.0,-999.0,80,-99.99,,,-99.99,,2013-04-28 05:32:00,
2013-04-28 00:42:00,56.0,51.0,-100.00,North,0,0.0,-999.0,81,-99.99,,,-99.99,,2013-04-28 05:42:00,
2013-04-28 00:52:00,56.0,51.0,-100.00,South,179,1.0,-999.0,82,-99.99,,,-99.99,,2013-04-28 05:52:00,
2013-04-28 01:01:00,56.0,51.0,-100.00,North,0,0.0,-999.0,83,-99.99,,,-99.99,,2013-04-28 06:01:00,
2013-04-28 01:12:00,55.0,51.0,-100.00,North,0,0.0,-999.0,85,-99.99,,,-99.99,,2013-04-28 06:12:00,
2013-04-28 01:21:00,55.0,51.0,-100.00,North,0,0.0,-999.0,87,-99.99,,,-99.99,,2013-04-28 06:21:00,
2013-04-28 01:32:00,55.0,51.0,-100.00,North,0,0.0,-999.0,86,-99.99,,,-99.99,,2013-04-28 06:32:00,
2013-04-28 01:42:00,55.0,52.0,-100.00,North,0,0.0,-999.0,87,-99.99,,,-99.99,,2013-04-28 06:42:00,
2013-04-28 01:51:00,55.0,52.0,-100.00,North,0,0.0,-999.0,88,-99.99,,,-99.99,,2013-04-28 06:51:00,
2013-04-28 02:01:00,55.0,52.0,-100.00,North,0,0.0,-999.0,90,-99.99,,,-99.99,,2013-04-28 07:01:00,
2013-04-28 02:11:00,54.0,52.0,-100.00,North,0,0.0,-999.0,91,-99.99,,,-99.99,,2013-04-28 07:11:00,
2013-04-28 02:21:00,54.0,52.0,-100.00,North,0,0.0,-999.0,91,-99.99,,,-99.99,,2013-04-28 07:21:00,
2013-04-28 02:32:00,54.0,52.0,-100.00,North,0,0.0,-999.0,91,-99.99,,,-99.99,,2013-04-28 07:32:00,
2013-04-28 02:42:00,54.0,52.0,-100.00,North,0,0.0,-999.0,92,-99.99,,,-99.99,,2013-04-28 07:42:00,
2013-04-28 02:52:00,54.0,52.0,-100.00,North,0,0.0,-999.0,92,-99.99,,,-99.99,,2013-04-28 07:52:00,
2013-04-28 03:02:00,54.0,52.0,-100.00,North,0,0.0,-999.0,94,-99.99,,,-99.99,,2013-04-28 08:02:00,
2013-04-28 03:11:00,54.0,52.0,-100.00,North,0,0.0,-999.0,95,-99.99,,,-99.99,,2013-04-28 08:11:00,
2013-04-28 03:21:00,53.0,52.0,-100.00,North,0,0.0,-999.0,96,-99.99,,,-99.99,,2013-04-28 08:21:00,
2013-04-28 03:32:00,53.0,52.0,-100.00,North,0,0.0,-999.0,97,-99.99,,,-99.99,,2013-04-28 08:32:00,
2013-04-28 03:42:00,53.0,52.0,-100.00,North,0,0.0,-999.0,99,-99.99,,,-99.99,,2013-04-28 08:42:00,
2013-04-28 03:52:00,53.0,-99.9,-100.00,North,0,0.0,-999.0,-999,-99.99,,,-99.99,,2013-04-28 08:52:00,
2013-04-28 04:01:00,52.0,-99.9,-100.00,North,0,0.0,-999.0,-999,-99.99,,,-99.99,,2013-04-28 09:01:00,
2013-04-28 04:12:00,52.0,-99.9,-100.00,North,0,0.0,-999.0,-999,-99.99,,,-99.99,,2013-04-28 09:12:00,
2013-04-28 04:22:00,52.0,-99.9,-100.00,North,0,0.0,-999.0,-999,-99.99,,,-99.99,,2013-04-28 09:22:00,
2013-04-28 04:33:00,52.0,-99.9,-100.00,North,0,0.0,-999.0,-999,-99.99,,,-99.99,,2013-04-28 09:33:00,
2013-04-28 04:43:00,52.0,-99.9,-100.00,North,0,0.0,-999.0,-999,-99.99,,,-99.99,,2013-04-28 09:43:00,
2013-04-28 04:53:00,51.0,-99.9,-100.00,North,0,0.0,-999.0,-999,-99.99,,,-99.99,,2013-04-28 09:53:00,
2013-04-28 05:03:00,51.0,-99.9,-100.00,North,0,0.0,-999.0,-999,-99.99,,,-99.99,,2013-04-28 10:03:00,
2013-04-28 05:12:00,51.0,-99.9,-100.00,North,0,0.0,-999.0,-999,-99.99,,,-99.99,,2013-04-28 10:12:00,
2013-04-28 05:23:00,51.0,-99.9,-100.00,North,0,0.0,-999.0,-999,-99.99,,,-99.99,,2013-04-28 10:23:00,
2013-04-28 05:32:00,50.0,-99.9,-100.00,North,0,0.0,-999.0,-999,-99.99,,,-99.99,,2013-04-28 10:32:00,
2013-04-28 05:42:00,49.0,-99.9,-100.00,North,0,0.0,-999.0,-999,-99.99,,,-99.99,,2013-04-28 10:42:00,
2013-04-28 05:53:00,49.0,-99.9,-100.00,North,0,0.0,-999.0,-999,-99.99,,,-99.99,,2013-04-28 10:53:00,
2013-04-28 06:03:00,48.0,-99.9,-100.00,North,0,0.0,-999.0,-999,-99.99,,,-99.99,,2013-04-28 11:03:00,
2013-04-28 06:11:00,47.0,-99.9,-100.00,North,0,0.0,-999.0,-999,-99.99,,,-99.99,,2013-04-28 11:11:00,
2013-04-28 06:22:00,47.0,-99.9,-100.00,North,0,0.0,-999.0,-999,-99.99,,,-99.99,,2013-04-28 11:22:00,
2013-04-28 06:32:00,48.0,-99.9,-100.00,North,0,0.0,-999.0,-999,-99.99,,,-99.99,,2013-04-28 11:32:00,
2013-04-28 06:42:00,47.0,-99.9,-100.00,North,0,0.0,-999.0,-999,-99.99,,,-99.99,,2013-04-28 11:42:00,
2013-04-28 06:52:00,47.0,-99.9,-100.00,North,0,0.0,-999.0,-999,-99.99,,,-99.99,,2013-04-28 11:52:00,
2013-04-28 07:02:00,47.0,-99.9,-100.00,North,0,0.0,-999.0,-999,-99.99,,,-99.99,,2013-04-28 12:02:00,
2013-04-28 07:12:00,48.0,-99.9,-100.00,North,0,0.0,-999.0,-999,-99.99,,,-99.99,,2013-04-28 12:12:00,
2013-04-28 07:22:00,48.0,-99.9,-100.00,North,0,0.0,-999.0,-999,-99.99,,,-99.99,,2013-04-28 12:22:00,
2013-04-28 07:32:00,48.0,-99.9,-100.00,North,0,0.0,-999.0,-999,-99.99,,,-99.99,,2013-04-28 12:32:00,
2013-04-28 07:42:00,49.0,-99.9,-100.00,North,0,0.0,-999.0,-999,-99.99,,,-99.99,,2013-04-28 12:42:00,
2013-04-28 07:52:00,49.0,-99.9,-100.00,North,0,0.0,-999.0,-999,-99.99,,,-99.99,,2013-04-28 12:52:00,
2013-04-28 08:02:00,49.0,-99.9,-100.00,North,0,0.0,-999.0,-999,-99.99,,,-99.99,,2013-04-28 13:02:00,
2013-04-28 08:11:00,49.0,-99.9,-100.00,North,0,0.0,-999.0,-999,-99.99,,,-99.99,,2013-04-28 13:11:00,
2013-04-28 08:22:00,50.0,-99.9,-100.00,North,0,0.0,-999.0,-999,-99.99,,,-99.99,,2013-04-28 13:22:00,
2013-04-28 08:32:00,50.0,-99.9,-100.00,North,0,0.0,-999.0,-999,-99.99,,,-99.99,,2013-04-28 13:32:00,
2013-04-28 08:42:00,51.0,-99.9,-100.00,North,0,0.0,-999.0,-999,-99.99,,,-99.99,,2013-04-28 13:42:00,
2013-04-28 08:52:00,52.0,-99.9,-100.00,North,0,0.0,-999.0,-999,-99.99,,,-99.99,,2013-04-28 13:52:00,
2013-04-28 09:02:00,53.0,-99.9,-100.00,North,0,0.0,-999.0,-999,-99.99,,,-99.99,,2013-04-28 14:02:00,
2013-04-28 09:11:00,54.0,-99.9,-100.00,North,0,0.0,-999.0,-999,-99.99,,,-99.99,,2013-04-28 14:11:00,
2013-04-28 09:22:00,54.0,-99.9,-100.00,North,0,0.0,-999.0,-999,-99.99,,,-99.99,,2013-04-28 14:22:00,
2013-04-28 09:32:00,55.0,-99.9,-100.00,North,0,0.0,-999.0,-999,-99.99,,,-99.99,,2013-04-28 14:32:00,
2013-04-28 09:42:00,58.0,56.0,-100.00,North,0,0.0,-999.0,95,-99.99,,,-99.99,,2013-04-28 14:42:00,
2013-04-28 09:52:00,59.0,56.0,-100.00,North,0,0.0,-999.0,90,-99.99,,,-99.99,,2013-04-28 14:52:00,
2013-04-28 10:02:00,60.0,56.0,-100.00,North,0,0.0,-999.0,86,-99.99,,,-99.99,,2013-04-28 15:02:00,
2013-04-28 10:12:00,60.0,56.0,-100.00,North,0,0.0,-999.0,86,-99.99,,,-99.99,,2013-04-28 15:12:00,
2013-04-28 10:21:00,63.0,55.0,-100.00,North,0,0.0,-999.0,74,-99.99,,,-99.99,,2013-04-28 15:21:00,
2013-04-28 10:32:00,64.0,54.0,-100.00,North,0,0.0,-999.0,70,-99.99,,,-99.99,,2013-04-28 15:32:00,
2013-04-28 10:42:00,64.0,54.0,-100.00,North,0,0.0,-999.0,70,-99.99,,,-99.99,,2013-04-28 15:42:00,
2013-04-28 10:53:00,66.0,55.0,-100.00,North,0,0.0,-999.0,67,-99.99,,,-99.99,,2013-04-28 15:53:00,
2013-04-28 11:03:00,67.0,53.0,-100.00,North,0,0.0,-999.0,62,-99.99,,,-99.99,,2013-04-28 16:03:00,
2013-04-28 11:13:00,66.0,53.0,-100.00,North,0,0.0,-999.0,64,-99.99,,,-99.99,,2013-04-28 16:13:00,
2013-04-28 11:23:00,66.0,53.0,-100.00,North,0,0.0,-999.0,62,-99.99,,,-99.99,,2013-04-28 16:23:00,
2013-04-28 11:33:00,68.0,54.0,-100.00,North,0,0.0,-999.0,60,-99.99,,,-99.99,,2013-04-28 16:33:00,
2013-04-28 11:42:00,69.0,54.0,-100.00,North,0,0.0,-999.0,59,-99.99,,,-99.99,,2013-04-28 16:42:00,
2013-04-28 11:52:00,69.0,54.0,-100.00,North,0,0.0,-999.0,59,-99.99,,,-99.99,,2013-04-28 16:52:00,
2013-04-28 12:02:00,69.0,52.0,-100.00,North,0,0.0,-999.0,54,-99.99,,,-99.99,,2013-04-28 17:02:00,
2013-04-28 12:12:00,70.0,52.0,-100.00,South,190,13.0,-999.0,52,-99.99,,,-99.99,,2013-04-28 17:12:00,
2013-04-28 12:22:00,71.0,51.0,-100.00,SSW,207,1.0,-999.0,50,-99.99,,,-99.99,,2013-04-28 17:22:00,
2013-04-28 12:32:00,72.0,51.0,-100.00,SSW,210,6.0,-999.0,48,-99.99,,,-99.99,,2013-04-28 17:32:00,
2013-04-28 12:42:00,72.0,53.0,-100.00,North,0,0.0,-999.0,50,-99.99,,,-99.99,,2013-04-28 17:42:00,
2013-04-28 12:52:00,73.0,52.0,-100.00,South,183,1.0,-999.0,47,-99.99,,,-99.99,,2013-04-28 17:52:00,
2013-04-28 13:02:00,74.0,52.0,-100.00,North,0,0.0,-999.0,46,-99.99,,,-99.99,,2013-04-28 18:02:00,
2013-04-28 13:12:00,73.0,51.0,-100.00,SSW,206,2.0,-999.0,45,-99.99,,,-99.99,,2013-04-28 18:12:00,
2013-04-28 13:22:00,76.0,51.0,-100.00,South,174,3.0,-999.0,43,-99.99,,,-99.99,,2013-04-28 18:22:00,
2013-04-28 13:32:00,77.0,51.0,-100.00,South,190,2.0,-999.0,41,-99.99,,,-99.99,,2013-04-28 18:32:00,
2013-04-28 13:42:00,76.0,52.0,-100.00,South,187,1.0,-999.0,43,-99.99,,,-99.99,,2013-04-28 18:42:00,
2013-04-28 13:52:00,78.0,51.0,-100.00,South,180,1.0,-999.0,39,-99.99,,,-99.99,,2013-04-28 18:52:00,
2013-04-28 14:02:00,79.0,50.0,-100.00,South,178,3.0,-999.0,36,-99.99,,,-99.99,,2013-04-28 19:02:00,
2013-04-28 14:11:00,80.0,49.0,-100.00,SSW,198,27.0,-999.0,33,-99.99,,,-99.99,,2013-04-28 19:11:00,
2013-04-28 14:22:00,80.0,52.0,-100.00,North,0,0.0,-999.0,38,-99.99,,,-99.99,,2013-04-28 19:22:00,
2013-04-28 14:32:00,81.0,51.0,-100.00,SSE,161,3.0,-999.0,35,-99.99,,,-99.99,,2013-04-28 19:32:00,
2013-04-28 14:42:00,82.0,50.0,-100.00,South,179,1.0,-999.0,33,-99.99,,,-99.99,,2013-04-28 19:42:00,
2013-04-28 14:52:00,82.0,51.0,-100.00,North,0,0.0,-999.0,34,-99.99,,,-99.99,,2013-04-28 19:52:00,
2013-04-28 15:02:00,80.0,49.0,-100.00,South,186,1.0,-999.0,34,-99.99,,,-99.99,,2013-04-28 20:02:00,
2013-04-28 15:12:00,82.0,50.0,-100.00,SSW,197,0.0,-999.0,33,-99.99,,,-99.99,,2013-04-28 20:12:00,
2013-04-28 15:22:00,82.0,49.0,-100.00,South,173,3.0,-999.0,32,-99.99,,,-99.99,,2013-04-28 20:22:00,
2013-04-28 15:32:00,83.0,49.0,-100.00,SSW,194,0.0,-999.0,30,-99.99,,,-99.99,,2013-04-28 20:32:00,
2013-04-28 15:42:00,83.0,47.0,-100.00,SSW,200,197.0,-999.0,28,-99.99,,,-99.99,,2013-04-28 20:42:00,
2013-04-28 15:52:00,82.0,46.0,-100.00,SSW,210,5.0,-999.0,28,-99.99,,,-99.99,,2013-04-28 20:52:00,
2013-04-28 16:01:00,83.0,47.0,-100.00,North,0,0.0,-999.0,29,-99.99,,,-99.99,,2013-04-28 21:01:00,
2013-04-28 16:11:00,84.0,48.0,-100.00,North,0,0.0,-999.0,28,-99.99,,,-99.99,,2013-04-28 21:11:00,
2013-04-28 16:22:00,85.0,46.0,-100.00,SSW,192,1.0,-999.0,26,-99.99,,,-99.99,,2013-04-28 21:22:00,
2013-04-28 16:33:00,85.0,46.0,-100.00,North,0,0.0,-999.0,26,-99.99,,,-99.99,,2013-04-28 21:33:00,
2013-04-28 16:42:00,84.0,46.0,-100.00,North,0,0.0,-999.0,26,-99.99,,,-99.99,,2013-04-28 21:42:00,
2013-04-28 16:52:00,84.0,43.0,-100.00,SSW,213,2.0,-999.0,24,-99.99,,,-99.99,,2013-04-28 21:52:00,
2013-04-28 17:03:00,84.0,46.0,-100.00,North,0,0.0,-999.0,26,-99.99,,,-99.99,,2013-04-28 22:03:00,
2013-04-28 17:12:00,85.0,44.0,-100.00,South,184,1.0,-999.0,24,-99.99,,,-99.99,,2013-04-28 22:12:00,
2013-04-28 17:23:00,85.0,46.0,-100.00,SSE,153,1.0,-999.0,25,-99.99,,,-99.99,,2013-04-28 22:23:00,
2013-04-28 17:33:00,84.0,42.0,-100.00,SSW,192,1.0,-999.0,23,-99.99,,,-99.99,,2013-04-28 22:33:00,
2013-04-28 17:42:00,85.0,43.0,-100.00,North,0,0.0,-999.0,23,-99.99,,,-99.99,,2013-04-28 22:42:00,
2013-04-28 17:52:00,84.0,42.0,-100.00,North,0,0.0,-999.0,23,-99.99,,,-99.99,,2013-04-28 22:52:00,
2013-04-28 18:02:00,85.0,43.0,-100.00,SSW,199,1.0,-999.0,23,-99.99,,,-99.99,,2013-04-28 23:02:00,
2013-04-28 18:12:00,84.0,43.0,-100.00,South,187,115.0,-999.0,24,-99.99,,,-99.99,,2013-04-28 23:12:00,
2013-04-28 18:22:00,84.0,46.0,-100.00,North,0,0.0,-999.0,26,-99.99,,,-99.99,,2013-04-28 23:22:00,
2013-04-28 18:32:00,84.0,46.0,-100.00,South,186,37.0,-999.0,27,-99.99,,,-99.99,,2013-04-28 23:32:00,
2013-04-28 18:42:00,83.0,44.0,-100.00,SSW,195,-999.0,-999.0,25,-99.99,,,-99.99,,2013-04-28 23:42:00,
2013-04-28 18:52:00,84.0,47.0,-100.00,South,179,-999.0,-999.0,27,-99.99,,,-99.99,,2013-04-28 23:52:00,
2013-04-28 19:01:00,82.0,43.0,-100.00,South,191,103.0,-999.0,26,-99.99,,,-99.99,,2013-04-29 00:01:00,
2013-04-28 19:11:00,81.0,44.0,-100.00,South,188,123.0,-999.0,27,-99.99,,,-99.99,,2013-04-29 00:11:00,
2013-04-28 19:22:00,80.0,45.0,-100.00,South,172,167.0,-999.0,29,-99.99,,,-99.99,,2013-04-29 00:22:00,
2013-04-28 19:32:00,80.0,46.0,-100.00,North,0,0.0,-999.0,30,-99.99,,,-99.99,,2013-04-29 00:32:00,
2013-04-28 19:42:00,80.0,46.0,-100.00,North,0,0.0,-999.0,30,-99.99,,,-99.99,,2013-04-29 00:42:00,
2013-04-28 19:52:00,77.0,46.0,-100.00,North,0,0.0,-999.0,33,-99.99,,,-99.99,,2013-04-29 00:52:00,
2013-04-28 20:01:00,77.0,46.0,-100.00,North,0,0.0,-999.0,33,-99.99,,,-99.99,,2013-04-29 01:01:00,
2013-04-28 20:12:00,77.0,46.0,-100.00,North,0,0.0,-999.0,34,-99.99,,,-99.99,,2013-04-29 01:12:00,
2013-04-28 20:21:00,75.0,47.0,-100.00,WNW,285,-999.0,-999.0,37,-99.99,,,-99.99,,2013-04-29 01:21:00,
2013-04-28 20:32:00,74.0,47.0,-100.00,North,-999,-999.0,-999.0,38,-99.99,,,-99.99,,2013-04-29 01:32:00,
2013-04-28 20:42:00,72.0,45.0,-100.00,South,188,199.0,-999.0,38,-99.99,,,-99.99,,2013-04-29 01:42:00,
2013-04-28 20:52:00,70.0,44.0,-100.00,NNE,12,12.0,-999.0,39,-99.99,,,-99.99,,2013-04-29 01:52:00,
2013-04-28 21:02:00,69.0,43.0,-100.00,East,97,7.0,-999.0,40,-99.99,,,-99.99,,2013-04-29 02:02:00,
2013-04-28 21:11:00,68.0,43.0,-100.00,NNE,14,4.0,-999.0,41,-99.99,,,-99.99,,2013-04-29 02:11:00,
2013-04-28 21:22:00,67.0,42.0,-100.00,NNE,13,4.0,-999.0,41,-99.99,,,-99.99,,2013-04-29 02:22:00,
2013-04-28 21:32:00,67.0,42.0,-100.00,NNE,16,4.0,-999.0,41,-99.99,,,-99.99,,2013-04-29 02:32:00,
2013-04-28 21:42:00,66.0,43.0,-100.00,East,92,4.0,-999.0,43,-99.99,,,-99.99,,2013-04-29 02:42:00,
2013-04-28 21:51:00,66.0,43.0,-100.00,NNE,15,9.0,-999.0,43,-99.99,,,-99.99,,2013-04-29 02:51:00,
2013-04-28 22:01:00,65.0,43.0,-100.00,NNE,22,2.0,-999.0,44,-99.99,,,-99.99,,2013-04-29 03:01:00,
2013-04-28 22:12:00,65.0,43.0,-100.00,East,96,2.0,-999.0,44,-99.99,,,-99.99,,2013-04-29 03:12:00,
2013-04-28 22:21:00,65.0,42.0,-100.00,East,89,1.0,-999.0,44,-99.99,,,-99.99,,2013-04-29 03:21:00,
2013-04-28 22:33:00,64.0,42.0,-100.00,East,91,0.0,-999.0,45,-99.99,,,-99.99,,2013-04-29 03:33:00,
2013-04-28 22:42:00,64.0,43.0,-100.00,NNE,17,2.0,-999.0,45,-99.99,,,-99.99,,2013-04-29 03:42:00,
2013-04-28 22:52:00,64.0,42.0,-100.00,North,6,2.0,-999.0,45,-99.99,,,-99.99,,2013-04-29 03:52:00,
2013-04-28 23:03:00,64.0,42.0,-100.00,North,6,2.0,-999.0,45,-99.99,,,-99.99,,2013-04-29 04:03:00,
2013-04-28 23:13:00,63.0,43.0,-100.00,NNE,20,1.0,-999.0,47,-99.99,,,-99.99,,2013-04-29 04:13:00,
2013-04-28 23:23:00,63.0,43.0,-100.00,NNE,24,1.0,-999.0,48,-99.99,,,-99.99,,2013-04-29 04:23:00,
2013-04-28 23:33:00,63.0,43.0,-100.00,NNE,21,3.0,-999.0,48,-99.99,,,-99.99,,2013-04-29 04:33:00,
2013-04-28 23:43:00,63.0,43.0,-100.00,North,0,0.0,-999.0,48,-99.99,,,-99.99,,2013-04-29 04:43:00,
2013-04-28 23:52:00,63.0,43.0,-100.00,NNE,22,1.0,-999.0,48,-99.99,,,-99.99,,2013-04-29 04:52:00,